createdAt,value
2022-11-30T00:04:00.439Z,101871.00
2022-11-30T00:09:04.688Z,101869.25
2022-11-30T00:14:07.616Z,101870.41
2022-11-30T00:19:10.387Z,101871.47
2022-11-30T00:24:14.494Z,101879.56
2022-11-30T00:29:17.278Z,101880.72
2022-11-30T00:34:20.045Z,101896.44
2022-11-30T00:39:24.145Z,101903.53
2022-11-30T00:44:26.880Z,101901.91
2022-11-30T00:49:29.630Z,101900.25
2022-11-30T00:54:35.111Z,101902.25
2022-11-30T00:59:37.825Z,101906.78
2022-11-30T01:04:40.601Z,101906.44
2022-11-30T01:09:44.760Z,101913.06
2022-11-30T01:14:47.904Z,101920.41
2022-11-30T01:19:51.201Z,101908.13
2022-11-30T01:24:56.710Z,101908.94
2022-11-30T01:29:59.620Z,101913.34
2022-11-30T01:35:02.328Z,101908.13
2022-11-30T01:40:07.941Z,101902.59
2022-11-30T01:45:14.321Z,101899.28
2022-11-30T01:50:21.411Z,101900.25
2022-11-30T01:55:29.018Z,101903.59
2022-11-30T02:00:31.843Z,101905.31
2022-11-30T02:05:41.542Z,101904.13
2022-11-30T02:10:51.239Z,101912.31
2022-11-30T02:16:04.333Z,101911.31
2022-11-30T02:21:14.829Z,101909.00
2022-11-30T02:26:48.529Z,101907.09
2022-11-30T02:31:58.015Z,101913.16
2022-11-30T02:37:02.137Z,101910.47
2022-11-30T02:42:05.094Z,101903.63
2022-11-30T02:47:21.563Z,101911.38
2022-11-30T02:52:27.325Z,101918.88
2022-11-30T02:57:30.108Z,101924.44
2022-11-30T03:02:34.450Z,101929.72
2022-11-30T03:07:37.630Z,101936.09
2022-11-30T03:12:40.415Z,101932.91
2022-11-30T03:17:44.579Z,101943.91
2022-11-30T03:22:47.590Z,101943.41
2022-11-30T03:27:50.371Z,101945.09
2022-11-30T03:32:54.537Z,101943.84
2022-11-30T03:37:57.592Z,101945.97
2022-11-30T03:43:00.367Z,101947.03
2022-11-30T03:48:04.709Z,101941.19
2022-11-30T03:53:07.458Z,101936.31
2022-11-30T03:58:10.299Z,101955.63
2022-11-30T04:03:14.579Z,101954.34
2022-11-30T04:08:17.350Z,101957.31
2022-11-30T04:13:20.192Z,101952.28
2022-11-30T04:18:26.207Z,101964.81
2022-11-30T04:23:31.486Z,101956.91
2022-11-30T04:28:35.210Z,101964.06
2022-11-30T04:33:39.414Z,101971.53
2022-11-30T04:38:42.193Z,101957.75
2022-11-30T04:43:45.033Z,101967.91
2022-11-30T04:48:49.194Z,101964.53
2022-11-30T04:53:51.979Z,101964.34
2022-11-30T04:58:54.811Z,101970.63
2022-11-30T05:04:00.243Z,101959.19
2022-11-30T05:09:03.167Z,101973.03
2022-11-30T05:14:06.392Z,101978.31
2022-11-30T05:19:10.517Z,101985.44
2022-11-30T05:24:13.640Z,101996.25
2022-11-30T05:29:16.422Z,101994.63
2022-11-30T05:34:20.555Z,102005.03
2022-11-30T05:39:23.467Z,102010.56
2022-11-30T05:44:27.339Z,102006.41
2022-11-30T05:49:31.717Z,102000.09
2022-11-30T05:54:34.915Z,102002.47
2022-11-30T05:59:37.718Z,102012.34
2022-11-30T06:04:42.145Z,102022.19
2022-11-30T06:09:46.395Z,102018.66
2022-11-30T06:14:50.817Z,102019.38
2022-11-30T06:19:55.030Z,102027.44
2022-11-30T06:24:57.764Z,102038.03
2022-11-30T06:30:01.436Z,102028.16
2022-11-30T06:35:06.118Z,102039.69
2022-11-30T06:40:10.866Z,102039.41
2022-11-30T06:45:13.730Z,102041.41
2022-11-30T06:50:18.501Z,102033.72
2022-11-30T06:55:21.349Z,102039.53
2022-11-30T07:00:24.385Z,102030.47
2022-11-30T07:05:29.320Z,102043.19
2022-11-30T07:10:32.175Z,102047.63
2022-11-30T07:15:34.892Z,102059.88
2022-11-30T07:20:39.710Z,102053.25
2022-11-30T07:26:00.287Z,102048.47
2022-11-30T07:31:03.525Z,102060.81
2022-11-30T07:36:08.343Z,102065.94
2022-11-30T07:41:11.101Z,102073.69
2022-11-30T07:46:15.831Z,102064.31
2022-11-30T07:51:21.678Z,102072.16
2022-11-30T07:56:24.981Z,102085.13
2022-11-30T08:01:29.693Z,102088.22
2022-11-30T08:06:34.064Z,102084.97
2022-11-30T08:11:37.460Z,102083.88
2022-11-30T08:16:40.496Z,102083.19
2022-11-30T08:21:44.763Z,102089.16
2022-11-30T08:26:47.477Z,102097.81
2022-11-30T08:31:50.206Z,102097.41
2022-11-30T08:36:54.288Z,102098.34
2022-11-30T08:41:56.990Z,102110.72
2022-11-30T08:46:59.857Z,102115.50
2022-11-30T08:52:19.370Z,102115.75
2022-11-30T08:57:22.588Z,102129.56
2022-11-30T09:02:25.432Z,102131.25
2022-11-30T09:07:30.878Z,102138.66
2022-11-30T09:12:35.687Z,102143.25
2022-11-30T09:17:38.452Z,102148.69
2022-11-30T09:22:42.623Z,102147.63
2022-11-30T09:27:45.384Z,102151.78
2022-11-30T09:32:48.302Z,102153.41
2022-11-30T09:37:53.903Z,102144.00
2022-11-30T09:43:06.495Z,102145.56
2022-11-30T09:48:22.857Z,102154.50
2022-11-30T09:53:41.141Z,102145.28
2022-11-30T09:58:48.991Z,102152.09
2022-11-30T10:03:52.084Z,102157.66
2022-11-30T10:09:08.562Z,102151.00
2022-11-30T10:14:25.656Z,102155.03
2022-11-30T10:19:47.906Z,102150.19
2022-11-30T10:25:11.917Z,102143.88
2022-11-30T10:30:17.988Z,102144.97
2022-11-30T10:35:34.481Z,102139.88
2022-11-30T10:40:45.133Z,102141.78
2022-11-30T10:45:50.865Z,102142.41
2022-11-30T10:50:54.378Z,102139.69
2022-11-30T10:56:02.624Z,102140.72
2022-11-30T11:01:07.839Z,102134.47
2022-11-30T11:06:22.479Z,102143.28
2022-11-30T11:11:34.471Z,102139.78
2022-11-30T11:16:52.082Z,102140.53
2022-11-30T11:21:55.077Z,102136.28
2022-11-30T11:26:59.710Z,102140.13
2022-11-30T11:32:24.784Z,102134.41
2022-11-30T11:37:30.908Z,102131.09
2022-11-30T11:42:41.949Z,102147.22
2022-11-30T11:47:46.306Z,102142.22
2022-11-30T11:52:49.047Z,102140.63
2022-11-30T11:57:58.046Z,102150.16
2022-11-30T12:03:08.841Z,102149.66
2022-11-30T12:08:18.027Z,102149.38
2022-11-30T12:13:24.772Z,102147.88
2022-11-30T12:18:34.949Z,102147.34
2022-11-30T12:23:55.994Z,102144.72
2022-11-30T12:29:18.208Z,102155.09
2022-11-30T12:34:31.425Z,102158.59
2022-11-30T12:39:46.160Z,102162.97
2022-11-30T12:44:59.846Z,102158.53
2022-11-30T12:50:23.770Z,102163.47
2022-11-30T12:55:34.199Z,102160.88
2022-11-30T13:00:50.814Z,102165.31
2022-11-30T13:05:58.918Z,102172.88
2022-11-30T13:11:06.924Z,102171.88
2022-11-30T13:16:11.199Z,102170.72
2022-11-30T13:21:22.935Z,102171.06
2022-11-30T13:26:32.493Z,102179.41
2022-11-30T13:31:41.005Z,102173.88
2022-11-30T13:36:45.719Z,102181.31
2022-11-30T13:41:50.694Z,102181.63
2022-11-30T13:46:54.924Z,102185.59
2022-11-30T13:52:21.640Z,102179.66
2022-11-30T13:57:54.347Z,102178.03
2022-11-30T14:03:19.381Z,102181.16
2022-11-30T14:08:40.064Z,102183.38
2022-11-30T14:13:43.932Z,102196.94
2022-11-30T14:18:49.099Z,102197.31
2022-11-30T14:23:56.474Z,102200.38
2022-11-30T14:29:04.948Z,102202.63
2022-11-30T14:34:11.744Z,102198.66
2022-11-30T14:39:26.645Z,102206.34
2022-11-30T14:44:42.637Z,102199.50
2022-11-30T14:49:52.598Z,102207.06
2022-11-30T14:55:05.586Z,102201.91
2022-11-30T15:00:17.517Z,102208.56
2022-11-30T15:05:26.739Z,102203.97
2022-11-30T15:10:32.000Z,102204.34
2022-11-30T15:15:38.773Z,102198.16
2022-11-30T15:20:52.220Z,102204.16
2022-11-30T15:25:58.485Z,102215.31
2022-11-30T15:31:07.242Z,102209.31
2022-11-30T15:36:27.931Z,102211.56
2022-11-30T15:41:36.016Z,102212.41
2022-11-30T15:46:46.377Z,102217.88
2022-11-30T15:52:02.235Z,102217.38
2022-11-30T15:57:09.124Z,102224.28
2022-11-30T16:02:28.255Z,102230.28
2022-11-30T16:07:33.431Z,102226.91
2022-11-30T16:12:36.515Z,102227.94
2022-11-30T16:17:39.280Z,102240.41
2022-11-30T16:22:44.828Z,102233.66
2022-11-30T16:27:48.706Z,102252.38
2022-11-30T16:32:51.865Z,102253.66
2022-11-30T16:37:56.107Z,102253.00
2022-11-30T16:42:58.956Z,102258.19
2022-11-30T16:48:01.859Z,102254.72
2022-11-30T16:53:06.609Z,102259.50
2022-11-30T16:58:09.444Z,102266.84
2022-11-30T17:03:20.879Z,102259.88
2022-11-30T17:08:25.060Z,102266.81
2022-11-30T17:13:28.199Z,102261.81
2022-11-30T17:18:30.983Z,102268.25
2022-11-30T17:23:37.207Z,102270.25
2022-11-30T17:28:41.120Z,102284.03
2022-11-30T17:33:48.142Z,102279.44
2022-11-30T17:38:52.544Z,102280.59
2022-11-30T17:43:55.403Z,102273.59
2022-11-30T17:48:58.520Z,102285.69
2022-11-30T17:54:03.072Z,102296.88
2022-11-30T17:59:06.059Z,102302.53
2022-11-30T18:04:09.057Z,102305.31
2022-11-30T18:09:13.260Z,102315.34
2022-11-30T18:14:16.271Z,102314.28
2022-11-30T18:19:19.100Z,102317.72
2022-11-30T18:24:25.493Z,102319.16
2022-11-30T18:29:28.976Z,102320.63
2022-11-30T18:34:31.892Z,102323.38
2022-11-30T18:39:36.114Z,102321.38
2022-11-30T18:44:38.870Z,102329.09
2022-11-30T18:49:41.673Z,102334.75
2022-11-30T18:54:46.281Z,102335.84
2022-11-30T18:59:53.695Z,102337.84
2022-11-30T19:04:56.877Z,102344.47
2022-11-30T19:10:01.321Z,102340.75
2022-11-30T19:15:07.505Z,102341.88
2022-11-30T19:20:11.637Z,102342.63
2022-11-30T19:25:19.191Z,102346.28
2022-11-30T19:30:23.629Z,102348.84
2022-11-30T19:35:26.594Z,102353.41
2022-11-30T19:40:34.141Z,102356.56
2022-11-30T19:45:37.151Z,102366.63
2022-11-30T19:50:40.140Z,102355.09
2022-11-30T19:55:44.435Z,102369.38
2022-11-30T20:00:47.725Z,102368.66
2022-11-30T20:05:50.886Z,102374.28
2022-11-30T20:10:57.205Z,102367.88
2022-11-30T20:16:14.250Z,102381.63
2022-11-30T20:21:22.418Z,102378.91
2022-11-30T20:26:29.957Z,102387.69
2022-11-30T20:31:36.248Z,102388.03
2022-11-30T20:36:42.173Z,102387.31
2022-11-30T20:41:46.405Z,102386.00
2022-11-30T20:46:51.303Z,102383.09
2022-11-30T20:51:55.660Z,102389.91
2022-11-30T20:57:01.605Z,102394.47
2022-11-30T21:02:07.008Z,102399.22
2022-11-30T21:07:14.508Z,102391.91
2022-11-30T21:12:18.706Z,102397.41
2022-11-30T21:17:21.940Z,102387.16
2022-11-30T21:22:25.148Z,102399.06
2022-11-30T21:27:31.344Z,102396.66
2022-11-30T21:32:35.552Z,102398.69
2022-11-30T21:37:38.515Z,102393.94
2022-11-30T21:42:43.880Z,102391.75
2022-11-30T21:47:46.788Z,102393.03
2022-11-30T21:52:49.620Z,102390.66
2022-11-30T21:57:56.096Z,102386.41
2022-11-30T22:02:58.928Z,102387.53
2022-11-30T22:08:04.283Z,102390.28
2022-11-30T22:13:08.571Z,102395.41
2022-11-30T22:18:15.383Z,102388.09
2022-11-30T22:23:21.742Z,102390.66
2022-11-30T22:28:38.903Z,102396.88
2022-11-30T22:33:43.041Z,102396.13
2022-11-30T22:38:46.855Z,102404.38
2022-11-30T22:43:51.116Z,102395.22
2022-11-30T22:48:54.373Z,102399.97
2022-11-30T22:53:57.119Z,102400.69
2022-11-30T22:59:01.797Z,102395.22
2022-11-30T23:04:07.048Z,102396.88
2022-11-30T23:09:13.327Z,102391.38
2022-11-30T23:14:20.827Z,102401.63
2022-11-30T23:19:23.740Z,102398.34
2022-11-30T23:24:26.523Z,102406.03
2022-11-30T23:29:32.717Z,102406.94
2022-11-30T23:34:35.511Z,102414.09
2022-11-30T23:39:41.369Z,102420.13
2022-11-30T23:44:45.503Z,102411.34
2022-11-30T23:49:51.816Z,102413.88
2022-11-30T23:54:54.564Z,102416.09
2022-11-30T23:59:58.638Z,102410.78
